sensor_id;sensor_type;location;lat;lon;timestamp;P1;durP1;ratioP1;P2;durP2;ratioP2
16669;SDS011;8448;52.034;5.158;2023-12-14T00:01:12;19.30;;;10.90;;
16669;SDS011;8448;52.034;5.158;2023-12-14T00:03:40;17.17;;;11.33;;
16669;SDS011;8448;52.034;5.158;2023-12-14T00:06:09;17.23;;;10.87;;
16669;SDS011;8448;52.034;5.158;2023-12-14T00:08:36;18.77;;;11.23;;
16669;SDS011;8448;52.034;5.158;2023-12-14T00:11:06;17.50;;;11.40;;
16669;SDS011;8448;52.034;5.158;2023-12-14T00:13:34;19.20;;;11.63;;
16669;SDS011;8448;52.034;5.158;2023-12-14T00:16:02;20.60;;;12.07;;
16669;SDS011;8448;52.034;5.158;2023-12-14T00:18:30;16.70;;;10.57;;
16669;SDS011;8448;52.034;5.158;2023-12-14T00:20:57;18.17;;;11.33;;
16669;SDS011;8448;52.034;5.158;2023-12-14T00:23:24;18.90;;;10.87;;
16669;SDS011;8448;52.034;5.158;2023-12-14T00:25:52;16.40;;;11.00;;
16669;SDS011;8448;52.034;5.158;2023-12-14T00:28:20;17.80;;;10.90;;
16669;SDS011;8448;52.034;5.158;2023-12-14T00:30:48;15.97;;;10.47;;
16669;SDS011;8448;52.034;5.158;2023-12-14T00:33:15;17.37;;;10.73;;
16669;SDS011;8448;52.034;5.158;2023-12-14T00:35:43;16.47;;;10.73;;
16669;SDS011;8448;52.034;5.158;2023-12-14T00:38:10;16.67;;;10.83;;
16669;SDS011;8448;52.034;5.158;2023-12-14T00:40:37;18.07;;;11.20;;
16669;SDS011;8448;52.034;5.158;2023-12-14T00:43:05;16.37;;;10.73;;
16669;SDS011;8448;52.034;5.158;2023-12-14T00:45:33;16.83;;;10.80;;
16669;SDS011;8448;52.034;5.158;2023-12-14T00:48:01;15.70;;;9.90;;
16669;SDS011;8448;52.034;5.158;2023-12-14T00:50:28;15.53;;;10.20;;
16669;SDS011;8448;52.034;5.158;2023-12-14T00:52:56;16.20;;;10.50;;
16669;SDS011;8448;52.034;5.158;2023-12-14T00:55:23;15.73;;;9.53;;
16669;SDS011;8448;52.034;5.158;2023-12-14T00:57:50;14.40;;;9.80;;
16669;SDS011;8448;52.034;5.158;2023-12-14T01:00:18;14.40;;;9.83;;
16669;SDS011;8448;52.034;5.158;2023-12-14T01:02:47;16.47;;;10.77;;
16669;SDS011;8448;52.034;5.158;2023-12-14T01:05:14;15.97;;;10.30;;
16669;SDS011;8448;52.034;5.158;2023-12-14T01:07:42;14.63;;;9.93;;
16669;SDS011;8448;52.034;5.158;2023-12-14T01:10:09;15.80;;;10.23;;
16669;SDS011;8448;52.034;5.158;2023-12-14T01:12:37;14.90;;;9.80;;
16669;SDS011;8448;52.034;5.158;2023-12-14T01:15:05;15.00;;;10.03;;
16669;SDS011;8448;52.034;5.158;2023-12-14T01:17:33;13.57;;;9.07;;
16669;SDS011;8448;52.034;5.158;2023-12-14T01:20:04;14.17;;;9.90;;
16669;SDS011;8448;52.034;5.158;2023-12-14T01:22:32;15.53;;;9.73;;
16669;SDS011;8448;52.034;5.158;2023-12-14T01:24:59;14.80;;;10.23;;
16669;SDS011;8448;52.034;5.158;2023-12-14T01:27:27;15.67;;;10.27;;
16669;SDS011;8448;52.034;5.158;2023-12-14T01:29:54;15.53;;;9.90;;
16669;SDS011;8448;52.034;5.158;2023-12-14T01:32:22;16.87;;;10.87;;
16669;SDS011;8448;52.034;5.158;2023-12-14T01:34:49;17.13;;;10.23;;
16669;SDS011;8448;52.034;5.158;2023-12-14T01:37:18;14.87;;;10.23;;
16669;SDS011;8448;52.034;5.158;2023-12-14T01:39:45;15.27;;;10.50;;
16669;SDS011;8448;52.034;5.158;2023-12-14T01:42:12;16.33;;;10.57;;
16669;SDS011;8448;52.034;5.158;2023-12-14T01:44:40;15.40;;;9.83;;
16669;SDS011;8448;52.034;5.158;2023-12-14T01:47:07;16.47;;;10.50;;
16669;SDS011;8448;52.034;5.158;2023-12-14T01:49:34;15.03;;;10.33;;
16669;SDS011;8448;52.034;5.158;2023-12-14T01:52:02;16.00;;;10.33;;
16669;SDS011;8448;52.034;5.158;2023-12-14T01:54:31;16.13;;;9.60;;
16669;SDS011;8448;52.034;5.158;2023-12-14T01:56:58;15.63;;;9.90;;
16669;SDS011;8448;52.034;5.158;2023-12-14T01:59:26;16.60;;;10.10;;
16669;SDS011;8448;52.034;5.158;2023-12-14T02:01:53;15.70;;;9.90;;
16669;SDS011;8448;52.034;5.158;2023-12-14T02:04:22;14.40;;;9.87;;
16669;SDS011;8448;52.034;5.158;2023-12-14T02:06:51;16.30;;;9.87;;
16669;SDS011;8448;52.034;5.158;2023-12-14T02:09:18;17.83;;;10.77;;
16669;SDS011;8448;52.034;5.158;2023-12-14T02:11:46;17.07;;;11.57;;
16669;SDS011;8448;52.034;5.158;2023-12-14T02:14:14;16.17;;;10.63;;
16669;SDS011;8448;52.034;5.158;2023-12-14T02:16:41;15.80;;;10.80;;
16669;SDS011;8448;52.034;5.158;2023-12-14T02:19:08;15.37;;;10.50;;
16669;SDS011;8448;52.034;5.158;2023-12-14T02:21:36;15.87;;;10.23;;
16669;SDS011;8448;52.034;5.158;2023-12-14T02:24:05;15.53;;;10.50;;
16669;SDS011;8448;52.034;5.158;2023-12-14T02:26:32;16.93;;;11.07;;
16669;SDS011;8448;52.034;5.158;2023-12-14T02:28:59;14.80;;;10.50;;
16669;SDS011;8448;52.034;5.158;2023-12-14T02:31:27;15.03;;;10.60;;
16669;SDS011;8448;52.034;5.158;2023-12-14T02:33:54;17.20;;;11.00;;
16669;SDS011;8448;52.034;5.158;2023-12-14T02:36:21;16.57;;;10.90;;
16669;SDS011;8448;52.034;5.158;2023-12-14T02:38:49;16.53;;;10.80;;
16669;SDS011;8448;52.034;5.158;2023-12-14T02:41:17;17.87;;;11.83;;
16669;SDS011;8448;52.034;5.158;2023-12-14T02:43:45;16.13;;;10.90;;
16669;SDS011;8448;52.034;5.158;2023-12-14T02:46:12;16.70;;;10.93;;
16669;SDS011;8448;52.034;5.158;2023-12-14T02:48:40;17.33;;;11.50;;
16669;SDS011;8448;52.034;5.158;2023-12-14T02:51:12;19.00;;;12.10;;
16669;SDS011;8448;52.034;5.158;2023-12-14T02:53:40;19.40;;;12.20;;
16669;SDS011;8448;52.034;5.158;2023-12-14T02:56:08;18.60;;;11.63;;
16669;SDS011;8448;52.034;5.158;2023-12-14T02:58:37;19.10;;;11.63;;
16669;SDS011;8448;52.034;5.158;2023-12-14T03:01:05;17.90;;;11.60;;
16669;SDS011;8448;52.034;5.158;2023-12-14T03:03:32;17.33;;;11.07;;
16669;SDS011;8448;52.034;5.158;2023-12-14T03:06:00;21.47;;;12.43;;
16669;SDS011;8448;52.034;5.158;2023-12-14T03:08:27;19.77;;;11.13;;
16669;SDS011;8448;52.034;5.158;2023-12-14T03:10:54;18.30;;;11.63;;
16669;SDS011;8448;52.034;5.158;2023-12-14T03:13:22;17.43;;;11.37;;
16669;SDS011;8448;52.034;5.158;2023-12-14T03:15:51;20.33;;;12.40;;
16669;SDS011;8448;52.034;5.158;2023-12-14T03:18:18;20.53;;;11.57;;
16669;SDS011;8448;52.034;5.158;2023-12-14T03:20:45;20.57;;;11.57;;
16669;SDS011;8448;52.034;5.158;2023-12-14T03:23:13;20.60;;;11.93;;
16669;SDS011;8448;52.034;5.158;2023-12-14T03:25:40;20.17;;;11.40;;
16669;SDS011;8448;52.034;5.158;2023-12-14T03:28:07;19.67;;;11.00;;
16669;SDS011;8448;52.034;5.158;2023-12-14T03:30:35;17.27;;;11.13;;
16669;SDS011;8448;52.034;5.158;2023-12-14T03:33:03;17.17;;;11.10;;
16669;SDS011;8448;52.034;5.158;2023-12-14T03:35:32;18.83;;;11.27;;
16669;SDS011;8448;52.034;5.158;2023-12-14T03:38:01;17.60;;;11.43;;
16669;SDS011;8448;52.034;5.158;2023-12-14T03:40:28;20.73;;;12.50;;
16669;SDS011;8448;52.034;5.158;2023-12-14T03:42:55;19.97;;;11.60;;
16669;SDS011;8448;52.034;5.158;2023-12-14T03:45:23;18.33;;;11.53;;
16669;SDS011;8448;52.034;5.158;2023-12-14T03:47:50;20.87;;;11.60;;
16669;SDS011;8448;52.034;5.158;2023-12-14T03:50:19;24.27;;;11.73;;
16669;SDS011;8448;52.034;5.158;2023-12-14T03:52:46;20.80;;;12.13;;
16669;SDS011;8448;52.034;5.158;2023-12-14T03:55:14;23.27;;;12.43;;
16669;SDS011;8448;52.034;5.158;2023-12-14T03:57:41;21.33;;;11.93;;
16669;SDS011;8448;52.034;5.158;2023-12-14T04:00:09;24.30;;;12.77;;
16669;SDS011;8448;52.034;5.158;2023-12-14T04:02:37;21.43;;;12.50;;
16669;SDS011;8448;52.034;5.158;2023-12-14T04:05:06;21.33;;;12.00;;
16669;SDS011;8448;52.034;5.158;2023-12-14T04:07:35;20.37;;;11.63;;
16669;SDS011;8448;52.034;5.158;2023-12-14T04:10:05;19.60;;;11.37;;
16669;SDS011;8448;52.034;5.158;2023-12-14T04:12:33;20.17;;;11.57;;
16669;SDS011;8448;52.034;5.158;2023-12-14T04:15:01;18.77;;;10.80;;
16669;SDS011;8448;52.034;5.158;2023-12-14T04:17:28;21.20;;;10.53;;
16669;SDS011;8448;52.034;5.158;2023-12-14T04:19:56;18.87;;;10.70;;
16669;SDS011;8448;52.034;5.158;2023-12-14T04:22:23;20.60;;;11.00;;
16669;SDS011;8448;52.034;5.158;2023-12-14T04:24:53;17.67;;;10.40;;
16669;SDS011;8448;52.034;5.158;2023-12-14T04:27:20;18.50;;;10.67;;
16669;SDS011;8448;52.034;5.158;2023-12-14T04:29:52;19.43;;;10.80;;
16669;SDS011;8448;52.034;5.158;2023-12-14T04:32:19;19.90;;;10.57;;
16669;SDS011;8448;52.034;5.158;2023-12-14T04:34:46;17.83;;;10.00;;
16669;SDS011;8448;52.034;5.158;2023-12-14T04:37:14;18.53;;;9.87;;
16669;SDS011;8448;52.034;5.158;2023-12-14T04:39:41;15.73;;;9.40;;
16669;SDS011;8448;52.034;5.158;2023-12-14T04:42:10;19.13;;;8.67;;
16669;SDS011;8448;52.034;5.158;2023-12-14T04:44:37;17.30;;;8.87;;
16669;SDS011;8448;52.034;5.158;2023-12-14T04:47:04;16.47;;;8.67;;
16669;SDS011;8448;52.034;5.158;2023-12-14T04:49:33;13.53;;;8.00;;
16669;SDS011;8448;52.034;5.158;2023-12-14T04:52:00;14.20;;;8.40;;
16669;SDS011;8448;52.034;5.158;2023-12-14T04:54:27;16.37;;;8.73;;
16669;SDS011;8448;52.034;5.158;2023-12-14T04:56:55;13.03;;;7.60;;
16669;SDS011;8448;52.034;5.158;2023-12-14T04:59:24;12.93;;;7.47;;
16669;SDS011;8448;52.034;5.158;2023-12-14T05:01:51;12.97;;;7.53;;
16669;SDS011;8448;52.034;5.158;2023-12-14T05:04:18;12.80;;;7.70;;
16669;SDS011;8448;52.034;5.158;2023-12-14T05:06:45;16.03;;;8.63;;
16669;SDS011;8448;52.034;5.158;2023-12-14T05:09:13;12.37;;;7.40;;
16669;SDS011;8448;52.034;5.158;2023-12-14T05:11:40;15.27;;;7.33;;
16669;SDS011;8448;52.034;5.158;2023-12-14T05:14:08;14.43;;;7.77;;
16669;SDS011;8448;52.034;5.158;2023-12-14T05:16:36;11.40;;;6.87;;
16669;SDS011;8448;52.034;5.158;2023-12-14T05:19:04;11.30;;;6.63;;
16669;SDS011;8448;52.034;5.158;2023-12-14T05:21:31;10.63;;;7.20;;
16669;SDS011;8448;52.034;5.158;2023-12-14T05:23:59;10.60;;;6.87;;
16669;SDS011;8448;52.034;5.158;2023-12-14T05:26:26;14.97;;;7.23;;
16669;SDS011;8448;52.034;5.158;2023-12-14T05:28:53;12.50;;;7.03;;
16669;SDS011;8448;52.034;5.158;2023-12-14T05:31:21;13.37;;;7.50;;
16669;SDS011;8448;52.034;5.158;2023-12-14T05:33:49;13.00;;;7.53;;
16669;SDS011;8448;52.034;5.158;2023-12-14T05:36:17;13.07;;;7.27;;
16669;SDS011;8448;52.034;5.158;2023-12-14T05:38:44;12.10;;;7.07;;
16669;SDS011;8448;52.034;5.158;2023-12-14T05:41:11;13.27;;;7.67;;
16669;SDS011;8448;52.034;5.158;2023-12-14T05:43:39;12.90;;;8.03;;
16669;SDS011;8448;52.034;5.158;2023-12-14T05:46:06;11.43;;;7.17;;
16669;SDS011;8448;52.034;5.158;2023-12-14T05:48:34;11.80;;;7.60;;
16669;SDS011;8448;52.034;5.158;2023-12-14T05:51:03;9.87;;;7.13;;
16669;SDS011;8448;52.034;5.158;2023-12-14T05:53:30;11.63;;;7.53;;
16669;SDS011;8448;52.034;5.158;2023-12-14T05:56:01;12.47;;;7.13;;
16669;SDS011;8448;52.034;5.158;2023-12-14T05:58:29;11.10;;;7.33;;
16669;SDS011;8448;52.034;5.158;2023-12-14T06:00:56;11.23;;;6.53;;
16669;SDS011;8448;52.034;5.158;2023-12-14T06:03:24;12.13;;;7.57;;
16669;SDS011;8448;52.034;5.158;2023-12-14T06:05:51;9.60;;;6.67;;
16669;SDS011;8448;52.034;5.158;2023-12-14T06:08:20;10.63;;;6.70;;
16669;SDS011;8448;52.034;5.158;2023-12-14T06:10:47;9.87;;;6.80;;
16669;SDS011;8448;52.034;5.158;2023-12-14T06:13:14;12.47;;;6.70;;
16669;SDS011;8448;52.034;5.158;2023-12-14T06:15:42;9.63;;;6.60;;
16669;SDS011;8448;52.034;5.158;2023-12-14T06:18:09;10.33;;;6.57;;
16669;SDS011;8448;52.034;5.158;2023-12-14T06:20:36;8.87;;;6.53;;
16669;SDS011;8448;52.034;5.158;2023-12-14T06:23:04;10.70;;;6.90;;
16669;SDS011;8448;52.034;5.158;2023-12-14T06:25:32;9.73;;;6.70;;
16669;SDS011;8448;52.034;5.158;2023-12-14T06:28:00;9.50;;;6.57;;
16669;SDS011;8448;52.034;5.158;2023-12-14T06:30:28;9.60;;;6.30;;
16669;SDS011;8448;52.034;5.158;2023-12-14T06:32:55;9.87;;;6.47;;
16669;SDS011;8448;52.034;5.158;2023-12-14T06:35:22;8.70;;;6.23;;
16669;SDS011;8448;52.034;5.158;2023-12-14T06:37:50;9.90;;;6.20;;
16669;SDS011;8448;52.034;5.158;2023-12-14T06:40:17;9.00;;;6.00;;
16669;SDS011;8448;52.034;5.158;2023-12-14T06:42:46;10.13;;;6.70;;
16669;SDS011;8448;52.034;5.158;2023-12-14T06:45:15;10.07;;;7.10;;
16669;SDS011;8448;52.034;5.158;2023-12-14T06:47:42;10.73;;;7.07;;
16669;SDS011;8448;52.034;5.158;2023-12-14T06:50:11;10.40;;;6.93;;
16669;SDS011;8448;52.034;5.158;2023-12-14T06:52:39;12.53;;;7.23;;
16669;SDS011;8448;52.034;5.158;2023-12-14T06:55:06;12.30;;;7.63;;
16669;SDS011;8448;52.034;5.158;2023-12-14T06:57:34;11.67;;;7.20;;
16669;SDS011;8448;52.034;5.158;2023-12-14T07:00:03;12.27;;;7.70;;
16669;SDS011;8448;52.034;5.158;2023-12-14T07:02:31;13.77;;;7.67;;
16669;SDS011;8448;52.034;5.158;2023-12-14T07:04:59;11.70;;;7.43;;
16669;SDS011;8448;52.034;5.158;2023-12-14T07:07:27;11.67;;;7.03;;
16669;SDS011;8448;52.034;5.158;2023-12-14T07:09:54;11.30;;;7.53;;
16669;SDS011;8448;52.034;5.158;2023-12-14T07:12:21;11.63;;;7.17;;
16669;SDS011;8448;52.034;5.158;2023-12-14T07:14:49;11.77;;;7.67;;
16669;SDS011;8448;52.034;5.158;2023-12-14T07:17:17;13.00;;;8.40;;
16669;SDS011;8448;52.034;5.158;2023-12-14T07:19:45;11.03;;;7.57;;
16669;SDS011;8448;52.034;5.158;2023-12-14T07:22:12;13.50;;;8.93;;
16669;SDS011;8448;52.034;5.158;2023-12-14T07:24:39;11.93;;;7.13;;
16669;SDS011;8448;52.034;5.158;2023-12-14T07:27:07;11.63;;;7.33;;
16669;SDS011;8448;52.034;5.158;2023-12-14T07:29:35;11.00;;;7.47;;
16669;SDS011;8448;52.034;5.158;2023-12-14T07:32:02;11.47;;;7.40;;
16669;SDS011;8448;52.034;5.158;2023-12-14T07:34:31;11.10;;;7.67;;
16669;SDS011;8448;52.034;5.158;2023-12-14T07:36:58;12.20;;;7.73;;
16669;SDS011;8448;52.034;5.158;2023-12-14T07:39:26;12.83;;;7.40;;
16669;SDS011;8448;52.034;5.158;2023-12-14T07:41:53;11.20;;;7.70;;
16669;SDS011;8448;52.034;5.158;2023-12-14T07:44:21;10.40;;;7.17;;
16669;SDS011;8448;52.034;5.158;2023-12-14T07:46:50;12.40;;;7.60;;
16669;SDS011;8448;52.034;5.158;2023-12-14T07:49:17;11.57;;;7.27;;
16669;SDS011;8448;52.034;5.158;2023-12-14T07:51:46;11.77;;;7.33;;
16669;SDS011;8448;52.034;5.158;2023-12-14T07:54:14;11.83;;;7.77;;
16669;SDS011;8448;52.034;5.158;2023-12-14T07:56:41;10.47;;;6.83;;
16669;SDS011;8448;52.034;5.158;2023-12-14T07:59:08;10.93;;;7.60;;
16669;SDS011;8448;52.034;5.158;2023-12-14T08:01:36;11.33;;;7.03;;
16669;SDS011;8448;52.034;5.158;2023-12-14T08:04:03;10.30;;;6.97;;
16669;SDS011;8448;52.034;5.158;2023-12-14T08:06:31;11.23;;;7.10;;
16669;SDS011;8448;52.034;5.158;2023-12-14T08:08:59;14.63;;;7.53;;
16669;SDS011;8448;52.034;5.158;2023-12-14T08:11:26;11.00;;;6.90;;
16669;SDS011;8448;52.034;5.158;2023-12-14T08:13:54;10.27;;;7.10;;
16669;SDS011;8448;52.034;5.158;2023-12-14T08:16:21;9.03;;;6.80;;
16669;SDS011;8448;52.034;5.158;2023-12-14T08:18:48;11.90;;;7.60;;
16669;SDS011;8448;52.034;5.158;2023-12-14T08:21:16;12.47;;;7.33;;
16669;SDS011;8448;52.034;5.158;2023-12-14T08:23:44;10.67;;;7.20;;
16669;SDS011;8448;52.034;5.158;2023-12-14T08:26:12;11.70;;;7.47;;
16669;SDS011;8448;52.034;5.158;2023-12-14T08:28:40;13.40;;;7.27;;
16669;SDS011;8448;52.034;5.158;2023-12-14T08:31:07;9.33;;;6.40;;
16669;SDS011;8448;52.034;5.158;2023-12-14T08:33:36;9.57;;;6.67;;
16669;SDS011;8448;52.034;5.158;2023-12-14T08:36:03;10.23;;;6.90;;
16669;SDS011;8448;52.034;5.158;2023-12-14T08:38:31;9.60;;;6.40;;
16669;SDS011;8448;52.034;5.158;2023-12-14T08:40:58;10.97;;;6.90;;
16669;SDS011;8448;52.034;5.158;2023-12-14T08:43:27;10.20;;;7.20;;
16669;SDS011;8448;52.034;5.158;2023-12-14T08:45:55;9.60;;;6.80;;
16669;SDS011;8448;52.034;5.158;2023-12-14T08:48:22;9.97;;;7.30;;
16669;SDS011;8448;52.034;5.158;2023-12-14T08:50:49;10.10;;;7.00;;
16669;SDS011;8448;52.034;5.158;2023-12-14T08:53:18;9.03;;;6.33;;
16669;SDS011;8448;52.034;5.158;2023-12-14T08:55:45;12.10;;;7.70;;
16669;SDS011;8448;52.034;5.158;2023-12-14T08:58:13;11.73;;;7.53;;
16669;SDS011;8448;52.034;5.158;2023-12-14T09:00:41;10.47;;;7.37;;
16669;SDS011;8448;52.034;5.158;2023-12-14T09:03:09;11.57;;;7.73;;
16669;SDS011;8448;52.034;5.158;2023-12-14T09:05:36;13.97;;;8.00;;
16669;SDS011;8448;52.034;5.158;2023-12-14T09:08:07;11.60;;;8.20;;
16669;SDS011;8448;52.034;5.158;2023-12-14T09:10:34;11.77;;;7.60;;
16669;SDS011;8448;52.034;5.158;2023-12-14T09:13:02;12.00;;;7.93;;
16669;SDS011;8448;52.034;5.158;2023-12-14T09:15:30;11.53;;;7.57;;
16669;SDS011;8448;52.034;5.158;2023-12-14T09:17:58;12.67;;;7.80;;
16669;SDS011;8448;52.034;5.158;2023-12-14T09:20:26;11.00;;;7.37;;
16669;SDS011;8448;52.034;5.158;2023-12-14T09:22:53;10.90;;;7.37;;
16669;SDS011;8448;52.034;5.158;2023-12-14T09:25:20;11.27;;;7.67;;
16669;SDS011;8448;52.034;5.158;2023-12-14T09:27:48;10.83;;;7.77;;
16669;SDS011;8448;52.034;5.158;2023-12-14T09:30:15;10.17;;;7.03;;
16669;SDS011;8448;52.034;5.158;2023-12-14T09:32:43;9.70;;;6.83;;
16669;SDS011;8448;52.034;5.158;2023-12-14T09:35:12;9.70;;;6.93;;
16669;SDS011;8448;52.034;5.158;2023-12-14T09:37:39;8.33;;;6.10;;
16669;SDS011;8448;52.034;5.158;2023-12-14T09:40:07;8.00;;;5.80;;
16669;SDS011;8448;52.034;5.158;2023-12-14T09:42:37;7.13;;;5.57;;
16669;SDS011;8448;52.034;5.158;2023-12-14T09:45:06;10.67;;;6.20;;
16669;SDS011;8448;52.034;5.158;2023-12-14T09:47:34;9.90;;;6.60;;
16669;SDS011;8448;52.034;5.158;2023-12-14T09:50:02;8.20;;;6.07;;
16669;SDS011;8448;52.034;5.158;2023-12-14T09:52:31;8.17;;;5.93;;
16669;SDS011;8448;52.034;5.158;2023-12-14T09:54:59;6.07;;;4.70;;
16669;SDS011;8448;52.034;5.158;2023-12-14T09:57:29;8.20;;;4.90;;
16669;SDS011;8448;52.034;5.158;2023-12-14T09:59:56;8.13;;;5.20;;
16669;SDS011;8448;52.034;5.158;2023-12-14T10:02:24;5.93;;;4.70;;
16669;SDS011;8448;52.034;5.158;2023-12-14T10:04:52;6.33;;;4.27;;
16669;SDS011;8448;52.034;5.158;2023-12-14T10:07:21;6.30;;;4.30;;
16669;SDS011;8448;52.034;5.158;2023-12-14T10:09:50;5.40;;;3.73;;
16669;SDS011;8448;52.034;5.158;2023-12-14T10:12:18;5.73;;;3.73;;
16669;SDS011;8448;52.034;5.158;2023-12-14T10:14:47;5.50;;;4.10;;
16669;SDS011;8448;52.034;5.158;2023-12-14T10:17:16;5.87;;;4.37;;
16669;SDS011;8448;52.034;5.158;2023-12-14T10:19:44;4.53;;;3.73;;
16669;SDS011;8448;52.034;5.158;2023-12-14T10:22:13;5.07;;;3.70;;
16669;SDS011;8448;52.034;5.158;2023-12-14T10:24:42;4.90;;;3.57;;
16669;SDS011;8448;52.034;5.158;2023-12-14T10:27:12;5.77;;;4.10;;
16669;SDS011;8448;52.034;5.158;2023-12-14T10:29:41;4.33;;;3.70;;
16669;SDS011;8448;52.034;5.158;2023-12-14T10:32:10;5.20;;;3.90;;
16669;SDS011;8448;52.034;5.158;2023-12-14T10:34:37;5.23;;;3.90;;
16669;SDS011;8448;52.034;5.158;2023-12-14T10:37:06;6.73;;;4.30;;
16669;SDS011;8448;52.034;5.158;2023-12-14T10:39:34;5.13;;;3.90;;
16669;SDS011;8448;52.034;5.158;2023-12-14T10:42:02;8.50;;;4.10;;
16669;SDS011;8448;52.034;5.158;2023-12-14T10:44:32;6.63;;;4.20;;
16669;SDS011;8448;52.034;5.158;2023-12-14T10:47:03;4.67;;;4.00;;
16669;SDS011;8448;52.034;5.158;2023-12-14T10:49:31;5.47;;;4.07;;
16669;SDS011;8448;52.034;5.158;2023-12-14T10:52:00;6.47;;;4.17;;
16669;SDS011;8448;52.034;5.158;2023-12-14T10:54:29;5.70;;;4.60;;
16669;SDS011;8448;52.034;5.158;2023-12-14T10:56:58;5.17;;;4.47;;
16669;SDS011;8448;52.034;5.158;2023-12-14T10:59:26;6.17;;;4.60;;
16669;SDS011;8448;52.034;5.158;2023-12-14T11:01:55;5.87;;;4.47;;
16669;SDS011;8448;52.034;5.158;2023-12-14T11:04:23;5.67;;;4.07;;
16669;SDS011;8448;52.034;5.158;2023-12-14T11:06:52;6.27;;;3.73;;
16669;SDS011;8448;52.034;5.158;2023-12-14T11:09:21;4.73;;;3.57;;
16669;SDS011;8448;52.034;5.158;2023-12-14T11:11:54;4.03;;;3.43;;
16669;SDS011;8448;52.034;5.158;2023-12-14T11:14:24;4.00;;;3.13;;
16669;SDS011;8448;52.034;5.158;2023-12-14T11:16:55;4.85;;;3.75;;
16669;SDS011;8448;52.034;5.158;2023-12-14T11:19:23;3.95;;;3.33;;
16669;SDS011;8448;52.034;5.158;2023-12-14T11:21:56;3.25;;;2.95;;
16669;SDS011;8448;52.034;5.158;2023-12-14T11:24:37;3.83;;;3.53;;
16669;SDS011;8448;52.034;5.158;2023-12-14T11:27:08;4.80;;;3.78;;
16669;SDS011;8448;52.034;5.158;2023-12-14T11:29:37;4.57;;;3.60;;
16669;SDS011;8448;52.034;5.158;2023-12-14T11:32:08;4.55;;;3.45;;
16669;SDS011;8448;52.034;5.158;2023-12-14T11:34:35;5.18;;;3.75;;
16669;SDS011;8448;52.034;5.158;2023-12-14T11:37:05;4.93;;;3.10;;
16669;SDS011;8448;52.034;5.158;2023-12-14T11:39:32;5.10;;;4.07;;
16669;SDS011;8448;52.034;5.158;2023-12-14T11:42:00;5.10;;;4.00;;
16669;SDS011;8448;52.034;5.158;2023-12-14T11:44:28;4.43;;;4.03;;
16669;SDS011;8448;52.034;5.158;2023-12-14T11:46:55;4.25;;;3.65;;
16669;SDS011;8448;52.034;5.158;2023-12-14T11:49:25;4.82;;;4.00;;
16669;SDS011;8448;52.034;5.158;2023-12-14T11:51:53;6.65;;;4.38;;
16669;SDS011;8448;52.034;5.158;2023-12-14T11:54:22;6.55;;;4.72;;
16669;SDS011;8448;52.034;5.158;2023-12-14T11:56:49;5.55;;;4.38;;
16669;SDS011;8448;52.034;5.158;2023-12-14T11:59:17;6.33;;;4.77;;
16669;SDS011;8448;52.034;5.158;2023-12-14T12:01:55;6.20;;;4.63;;
16669;SDS011;8448;52.034;5.158;2023-12-14T12:04:24;7.10;;;4.70;;
16669;SDS011;8448;52.034;5.158;2023-12-14T12:06:58;6.83;;;4.93;;
16669;SDS011;8448;52.034;5.158;2023-12-14T12:09:33;6.07;;;4.77;;
16669;SDS011;8448;52.034;5.158;2023-12-14T12:12:01;7.80;;;5.43;;
16669;SDS011;8448;52.034;5.158;2023-12-14T12:14:31;7.33;;;5.40;;
16669;SDS011;8448;52.034;5.158;2023-12-14T12:16:58;8.50;;;5.67;;
16669;SDS011;8448;52.034;5.158;2023-12-14T12:19:27;8.10;;;5.40;;
16669;SDS011;8448;52.034;5.158;2023-12-14T12:21:54;7.47;;;5.50;;
16669;SDS011;8448;52.034;5.158;2023-12-14T12:24:22;7.13;;;5.30;;
16669;SDS011;8448;52.034;5.158;2023-12-14T12:26:49;8.40;;;5.67;;
16669;SDS011;8448;52.034;5.158;2023-12-14T12:29:16;10.10;;;6.23;;
16669;SDS011;8448;52.034;5.158;2023-12-14T12:31:44;9.70;;;5.97;;
16669;SDS011;8448;52.034;5.158;2023-12-14T12:34:11;7.87;;;5.43;;
16669;SDS011;8448;52.034;5.158;2023-12-14T12:36:40;7.83;;;5.27;;
16669;SDS011;8448;52.034;5.158;2023-12-14T12:39:07;12.13;;;6.87;;
16669;SDS011;8448;52.034;5.158;2023-12-14T12:41:35;8.27;;;5.83;;
16669;SDS011;8448;52.034;5.158;2023-12-14T12:44:03;9.13;;;5.93;;
16669;SDS011;8448;52.034;5.158;2023-12-14T12:46:32;9.17;;;5.63;;
16669;SDS011;8448;52.034;5.158;2023-12-14T12:49:00;8.50;;;6.30;;
16669;SDS011;8448;52.034;5.158;2023-12-14T12:51:28;11.53;;;6.73;;
16669;SDS011;8448;52.034;5.158;2023-12-14T12:53:57;9.60;;;6.07;;
16669;SDS011;8448;52.034;5.158;2023-12-14T12:56:25;9.97;;;7.03;;
16669;SDS011;8448;52.034;5.158;2023-12-14T12:58:52;10.43;;;6.27;;
16669;SDS011;8448;52.034;5.158;2023-12-14T13:01:20;9.70;;;6.13;;
16669;SDS011;8448;52.034;5.158;2023-12-14T13:03:51;9.93;;;6.63;;
16669;SDS011;8448;52.034;5.158;2023-12-14T13:06:23;10.43;;;6.63;;
16669;SDS011;8448;52.034;5.158;2023-12-14T13:08:50;13.80;;;7.57;;
16669;SDS011;8448;52.034;5.158;2023-12-14T13:11:19;11.93;;;7.50;;
16669;SDS011;8448;52.034;5.158;2023-12-14T13:13:46;11.53;;;7.67;;
16669;SDS011;8448;52.034;5.158;2023-12-14T13:16:13;11.30;;;8.10;;
16669;SDS011;8448;52.034;5.158;2023-12-14T13:18:42;10.70;;;7.60;;
16669;SDS011;8448;52.034;5.158;2023-12-14T13:21:11;10.47;;;7.17;;
16669;SDS011;8448;52.034;5.158;2023-12-14T13:23:38;11.53;;;8.07;;
16669;SDS011;8448;52.034;5.158;2023-12-14T13:26:06;11.17;;;7.67;;
16669;SDS011;8448;52.034;5.158;2023-12-14T13:28:35;12.93;;;8.10;;
16669;SDS011;8448;52.034;5.158;2023-12-14T13:31:03;13.83;;;8.03;;
16669;SDS011;8448;52.034;5.158;2023-12-14T13:33:31;12.23;;;7.90;;
16669;SDS011;8448;52.034;5.158;2023-12-14T13:35:58;11.87;;;7.93;;
16669;SDS011;8448;52.034;5.158;2023-12-14T13:38:26;13.53;;;7.80;;
16669;SDS011;8448;52.034;5.158;2023-12-14T13:40:53;11.20;;;7.53;;
16669;SDS011;8448;52.034;5.158;2023-12-14T13:43:20;15.23;;;7.77;;
16669;SDS011;8448;52.034;5.158;2023-12-14T13:45:49;12.27;;;7.90;;
16669;SDS011;8448;52.034;5.158;2023-12-14T13:48:17;10.67;;;7.47;;
16669;SDS011;8448;52.034;5.158;2023-12-14T13:50:45;16.13;;;8.00;;
16669;SDS011;8448;52.034;5.158;2023-12-14T13:53:12;12.13;;;7.73;;
16669;SDS011;8448;52.034;5.158;2023-12-14T13:55:39;12.30;;;7.87;;
16669;SDS011;8448;52.034;5.158;2023-12-14T13:58:07;11.50;;;7.43;;
16669;SDS011;8448;52.034;5.158;2023-12-14T14:00:34;11.90;;;7.93;;
16669;SDS011;8448;52.034;5.158;2023-12-14T14:03:03;11.97;;;8.00;;
16669;SDS011;8448;52.034;5.158;2023-12-14T14:05:31;11.30;;;7.57;;
16669;SDS011;8448;52.034;5.158;2023-12-14T14:07:58;11.53;;;7.90;;
16669;SDS011;8448;52.034;5.158;2023-12-14T14:10:25;11.23;;;8.13;;
16669;SDS011;8448;52.034;5.158;2023-12-14T14:12:53;10.47;;;7.27;;
16669;SDS011;8448;52.034;5.158;2023-12-14T14:15:21;14.40;;;8.23;;
16669;SDS011;8448;52.034;5.158;2023-12-14T14:17:48;12.17;;;7.97;;
16669;SDS011;8448;52.034;5.158;2023-12-14T14:20:18;12.50;;;7.97;;
16669;SDS011;8448;52.034;5.158;2023-12-14T14:22:46;12.67;;;8.37;;
16669;SDS011;8448;52.034;5.158;2023-12-14T14:25:13;12.87;;;7.87;;
16669;SDS011;8448;52.034;5.158;2023-12-14T14:27:40;13.40;;;8.40;;
16669;SDS011;8448;52.034;5.158;2023-12-14T14:30:08;14.07;;;8.10;;
16669;SDS011;8448;52.034;5.158;2023-12-14T14:32:36;13.93;;;7.70;;
16669;SDS011;8448;52.034;5.158;2023-12-14T14:35:04;12.50;;;8.00;;
16669;SDS011;8448;52.034;5.158;2023-12-14T14:37:33;12.63;;;7.90;;
16669;SDS011;8448;52.034;5.158;2023-12-14T14:40:00;14.40;;;8.90;;
16669;SDS011;8448;52.034;5.158;2023-12-14T14:42:29;14.13;;;9.33;;
16669;SDS011;8448;52.034;5.158;2023-12-14T14:44:57;15.67;;;8.07;;
16669;SDS011;8448;52.034;5.158;2023-12-14T14:47:24;13.37;;;7.87;;
16669;SDS011;8448;52.034;5.158;2023-12-14T14:49:53;12.50;;;7.53;;
16669;SDS011;8448;52.034;5.158;2023-12-14T14:52:22;12.40;;;7.77;;